sensor_id;sensor_type;location;lat;lon;timestamp;P1;durP1;ratioP1;P2;durP2;ratioP2
66966;SDS011;53900;51.468;-2.586;2022-10-31T00:00:27;22.65;;;3.13;;
66966;SDS011;53900;51.468;-2.586;2022-10-31T00:02:53;18.55;;;3.00;;
66966;SDS011;53900;51.468;-2.586;2022-10-31T00:05:18;20.77;;;2.90;;
66966;SDS011;53900;51.468;-2.586;2022-10-31T00:07:43;17.20;;;2.80;;
66966;SDS011;53900;51.468;-2.586;2022-10-31T00:10:09;25.23;;;3.60;;
66966;SDS011;53900;51.468;-2.586;2022-10-31T00:12:34;18.10;;;3.08;;
66966;SDS011;53900;51.468;-2.586;2022-10-31T00:14:59;27.25;;;3.22;;
66966;SDS011;53900;51.468;-2.586;2022-10-31T00:17:25;26.42;;;4.55;;
66966;SDS011;53900;51.468;-2.586;2022-10-31T00:19:50;21.45;;;3.42;;
66966;SDS011;53900;51.468;-2.586;2022-10-31T00:22:15;24.38;;;3.00;;
66966;SDS011;53900;51.468;-2.586;2022-10-31T00:24:41;24.85;;;2.92;;
66966;SDS011;53900;51.468;-2.586;2022-10-31T00:27:06;22.23;;;3.05;;
66966;SDS011;53900;51.468;-2.586;2022-10-31T00:29:32;22.90;;;3.00;;
66966;SDS011;53900;51.468;-2.586;2022-10-31T00:31:57;20.25;;;3.25;;
66966;SDS011;53900;51.468;-2.586;2022-10-31T00:34:22;20.38;;;2.65;;
66966;SDS011;53900;51.468;-2.586;2022-10-31T00:36:48;21.38;;;2.65;;
66966;SDS011;53900;51.468;-2.586;2022-10-31T00:39:13;26.98;;;3.13;;
66966;SDS011;53900;51.468;-2.586;2022-10-31T00:41:38;20.67;;;3.33;;
66966;SDS011;53900;51.468;-2.586;2022-10-31T00:44:04;23.70;;;3.83;;
66966;SDS011;53900;51.468;-2.586;2022-10-31T00:46:29;36.65;;;3.03;;
66966;SDS011;53900;51.468;-2.586;2022-10-31T00:48:54;25.35;;;3.15;;
66966;SDS011;53900;51.468;-2.586;2022-10-31T00:51:20;22.27;;;3.97;;
66966;SDS011;53900;51.468;-2.586;2022-10-31T00:53:45;20.15;;;2.72;;
66966;SDS011;53900;51.468;-2.586;2022-10-31T00:56:11;24.85;;;2.53;;
66966;SDS011;53900;51.468;-2.586;2022-10-31T00:58:36;25.50;;;2.88;;
66966;SDS011;53900;51.468;-2.586;2022-10-31T01:01:01;28.30;;;2.60;;
66966;SDS011;53900;51.468;-2.586;2022-10-31T01:03:29;16.50;;;2.40;;
66966;SDS011;53900;51.468;-2.586;2022-10-31T01:05:56;17.58;;;2.35;;
66966;SDS011;53900;51.468;-2.586;2022-10-31T01:08:24;28.60;;;4.07;;
66966;SDS011;53900;51.468;-2.586;2022-10-31T01:13:50;21.95;;;2.70;;
66966;SDS011;53900;51.468;-2.586;2022-10-31T01:16:17;18.85;;;2.65;;
66966;SDS011;53900;51.468;-2.586;2022-10-31T01:18:44;22.33;;;3.67;;
66966;SDS011;53900;51.468;-2.586;2022-10-31T01:21:11;22.77;;;2.95;;
66966;SDS011;53900;51.468;-2.586;2022-10-31T01:23:38;29.67;;;4.28;;
66966;SDS011;53900;51.468;-2.586;2022-10-31T01:26:05;25.35;;;3.15;;
66966;SDS011;53900;51.468;-2.586;2022-10-31T01:28:30;18.25;;;2.70;;
66966;SDS011;53900;51.468;-2.586;2022-10-31T01:30:59;24.30;;;3.15;;
66966;SDS011;53900;51.468;-2.586;2022-10-31T01:33:25;25.40;;;4.22;;
66966;SDS011;53900;51.468;-2.586;2022-10-31T01:35:50;26.40;;;4.25;;
66966;SDS011;53900;51.468;-2.586;2022-10-31T01:38:16;18.20;;;3.10;;
66966;SDS011;53900;51.468;-2.586;2022-10-31T01:40:41;16.42;;;2.13;;
66966;SDS011;53900;51.468;-2.586;2022-10-31T01:43:09;22.55;;;3.58;;
66966;SDS011;53900;51.468;-2.586;2022-10-31T01:45:37;18.80;;;2.97;;
66966;SDS011;53900;51.468;-2.586;2022-10-31T01:48:03;20.45;;;2.90;;
66966;SDS011;53900;51.468;-2.586;2022-10-31T01:50:31;22.73;;;3.03;;
66966;SDS011;53900;51.468;-2.586;2022-10-31T01:53:00;20.92;;;2.78;;
66966;SDS011;53900;51.468;-2.586;2022-10-31T01:55:26;18.67;;;2.45;;
66966;SDS011;53900;51.468;-2.586;2022-10-31T01:57:55;20.20;;;4.13;;
66966;SDS011;53900;51.468;-2.586;2022-10-31T02:00:23;24.27;;;2.83;;
66966;SDS011;53900;51.468;-2.586;2022-10-31T02:02:49;26.88;;;4.55;;
66966;SDS011;53900;51.468;-2.586;2022-10-31T02:05:18;14.77;;;2.80;;
66966;SDS011;53900;51.468;-2.586;2022-10-31T02:07:47;27.60;;;2.70;;
66966;SDS011;53900;51.468;-2.586;2022-10-31T02:10:17;22.92;;;2.38;;
66966;SDS011;53900;51.468;-2.586;2022-10-31T02:12:44;15.00;;;2.60;;
66966;SDS011;53900;51.468;-2.586;2022-10-31T02:15:09;23.75;;;2.85;;
66966;SDS011;53900;51.468;-2.586;2022-10-31T02:17:35;21.85;;;2.88;;
66966;SDS011;53900;51.468;-2.586;2022-10-31T02:20:04;22.88;;;3.45;;
66966;SDS011;53900;51.468;-2.586;2022-10-31T02:34:13;25.30;;;3.33;;
66966;SDS011;53900;51.468;-2.586;2022-10-31T02:36:43;23.77;;;2.85;;
66966;SDS011;53900;51.468;-2.586;2022-10-31T02:41:49;18.05;;;2.28;;
66966;SDS011;53900;51.468;-2.586;2022-10-31T02:44:33;26.13;;;3.08;;
66966;SDS011;53900;51.468;-2.586;2022-10-31T02:47:16;23.02;;;2.30;;
66966;SDS011;53900;51.468;-2.586;2022-10-31T02:52:20;29.00;;;3.78;;
66966;SDS011;53900;51.468;-2.586;2022-10-31T02:54:48;22.20;;;2.40;;
66966;SDS011;53900;51.468;-2.586;2022-10-31T02:57:14;22.95;;;3.17;;
66966;SDS011;53900;51.468;-2.586;2022-10-31T02:59:44;20.83;;;3.60;;
66966;SDS011;53900;51.468;-2.586;2022-10-31T03:07:46;20.67;;;2.50;;
66966;SDS011;53900;51.468;-2.586;2022-10-31T03:13:41;22.05;;;2.55;;
66966;SDS011;53900;51.468;-2.586;2022-10-31T03:16:17;16.73;;;2.95;;
66966;SDS011;53900;51.468;-2.586;2022-10-31T03:21:16;16.73;;;3.15;;
66966;SDS011;53900;51.468;-2.586;2022-10-31T03:23:46;20.80;;;3.13;;
66966;SDS011;53900;51.468;-2.586;2022-10-31T03:26:12;22.35;;;3.10;;
66966;SDS011;53900;51.468;-2.586;2022-10-31T03:28:46;18.67;;;2.95;;
66966;SDS011;53900;51.468;-2.586;2022-10-31T03:31:23;22.38;;;3.00;;
66966;SDS011;53900;51.468;-2.586;2022-10-31T03:33:52;20.77;;;2.55;;
66966;SDS011;53900;51.468;-2.586;2022-10-31T03:36:20;18.30;;;3.20;;
66966;SDS011;53900;51.468;-2.586;2022-10-31T03:38:46;26.35;;;3.40;;
66966;SDS011;53900;51.468;-2.586;2022-10-31T03:41:14;20.80;;;3.10;;
66966;SDS011;53900;51.468;-2.586;2022-10-31T03:43:44;19.10;;;2.70;;
66966;SDS011;53900;51.468;-2.586;2022-10-31T03:46:13;21.65;;;3.03;;
66966;SDS011;53900;51.468;-2.586;2022-10-31T03:48:38;22.75;;;3.15;;
66966;SDS011;53900;51.468;-2.586;2022-10-31T03:56:31;18.27;;;2.35;;
66966;SDS011;53900;51.468;-2.586;2022-10-31T03:59:11;18.60;;;2.45;;
66966;SDS011;53900;51.468;-2.586;2022-10-31T04:01:41;20.50;;;2.73;;
66966;SDS011;53900;51.468;-2.586;2022-10-31T04:04:09;13.52;;;2.10;;
66966;SDS011;53900;51.468;-2.586;2022-10-31T04:06:36;14.25;;;2.65;;
66966;SDS011;53900;51.468;-2.586;2022-10-31T04:09:03;15.23;;;2.70;;
66966;SDS011;53900;51.468;-2.586;2022-10-31T04:11:31;23.75;;;3.40;;
66966;SDS011;53900;51.468;-2.586;2022-10-31T04:13:58;18.45;;;2.45;;
66966;SDS011;53900;51.468;-2.586;2022-10-31T04:16:25;13.98;;;2.33;;
66966;SDS011;53900;51.468;-2.586;2022-10-31T04:18:51;16.15;;;2.00;;
66966;SDS011;53900;51.468;-2.586;2022-10-31T04:21:17;14.98;;;1.70;;
66966;SDS011;53900;51.468;-2.586;2022-10-31T04:23:42;21.75;;;2.50;;
66966;SDS011;53900;51.468;-2.586;2022-10-31T04:26:08;21.00;;;2.28;;
66966;SDS011;53900;51.468;-2.586;2022-10-31T04:28:35;16.73;;;2.83;;
66966;SDS011;53900;51.468;-2.586;2022-10-31T04:31:01;22.38;;;2.00;;
66966;SDS011;53900;51.468;-2.586;2022-10-31T04:33:26;12.98;;;2.63;;
66966;SDS011;53900;51.468;-2.586;2022-10-31T04:35:51;23.25;;;2.88;;
66966;SDS011;53900;51.468;-2.586;2022-10-31T04:38:17;14.60;;;2.92;;
66966;SDS011;53900;51.468;-2.586;2022-10-31T04:40:42;14.45;;;2.00;;
66966;SDS011;53900;51.468;-2.586;2022-10-31T04:43:07;15.93;;;2.28;;
66966;SDS011;53900;51.468;-2.586;2022-10-31T04:45:33;18.15;;;2.35;;
66966;SDS011;53900;51.468;-2.586;2022-10-31T04:47:58;22.02;;;2.67;;
66966;SDS011;53900;51.468;-2.586;2022-10-31T04:50:23;17.13;;;2.28;;
66966;SDS011;53900;51.468;-2.586;2022-10-31T04:52:49;23.40;;;2.40;;
66966;SDS011;53900;51.468;-2.586;2022-10-31T04:55:14;22.17;;;2.25;;
66966;SDS011;53900;51.468;-2.586;2022-10-31T04:57:43;23.35;;;2.97;;
66966;SDS011;53900;51.468;-2.586;2022-10-31T05:00:13;18.27;;;2.28;;
66966;SDS011;53900;51.468;-2.586;2022-10-31T05:02:43;21.00;;;2.70;;
66966;SDS011;53900;51.468;-2.586;2022-10-31T05:05:19;22.77;;;3.17;;
66966;SDS011;53900;51.468;-2.586;2022-10-31T05:07:46;27.15;;;2.67;;
66966;SDS011;53900;51.468;-2.586;2022-10-31T05:10:14;22.13;;;2.30;;
66966;SDS011;53900;51.468;-2.586;2022-10-31T05:12:50;15.40;;;1.98;;
66966;SDS011;53900;51.468;-2.586;2022-10-31T05:15:17;17.77;;;2.22;;
66966;SDS011;53900;51.468;-2.586;2022-10-31T05:17:43;16.58;;;2.17;;
66966;SDS011;53900;51.468;-2.586;2022-10-31T05:20:09;16.55;;;2.50;;
66966;SDS011;53900;51.468;-2.586;2022-10-31T05:22:36;17.42;;;2.08;;
66966;SDS011;53900;51.468;-2.586;2022-10-31T05:25:01;18.60;;;3.00;;
66966;SDS011;53900;51.468;-2.586;2022-10-31T05:27:26;18.20;;;2.95;;
66966;SDS011;53900;51.468;-2.586;2022-10-31T05:29:52;17.23;;;2.40;;
66966;SDS011;53900;51.468;-2.586;2022-10-31T05:32:17;20.15;;;2.53;;
66966;SDS011;53900;51.468;-2.586;2022-10-31T05:34:42;16.48;;;2.22;;
66966;SDS011;53900;51.468;-2.586;2022-10-31T05:37:08;15.95;;;2.70;;
66966;SDS011;53900;51.468;-2.586;2022-10-31T05:39:33;18.13;;;2.47;;
66966;SDS011;53900;51.468;-2.586;2022-10-31T05:41:58;23.23;;;2.05;;
66966;SDS011;53900;51.468;-2.586;2022-10-31T05:44:24;29.13;;;4.22;;
66966;SDS011;53900;51.468;-2.586;2022-10-31T05:46:49;18.90;;;2.05;;
66966;SDS011;53900;51.468;-2.586;2022-10-31T05:49:14;21.23;;;2.50;;
66966;SDS011;53900;51.468;-2.586;2022-10-31T05:51:40;22.83;;;3.40;;
66966;SDS011;53900;51.468;-2.586;2022-10-31T05:54:05;15.02;;;2.50;;
66966;SDS011;53900;51.468;-2.586;2022-10-31T05:56:30;17.08;;;2.90;;
66966;SDS011;53900;51.468;-2.586;2022-10-31T05:58:56;22.20;;;2.50;;
66966;SDS011;53900;51.468;-2.586;2022-10-31T06:01:21;15.50;;;2.05;;
66966;SDS011;53900;51.468;-2.586;2022-10-31T06:03:47;21.23;;;2.78;;
66966;SDS011;53900;51.468;-2.586;2022-10-31T06:06:12;20.27;;;2.67;;
66966;SDS011;53900;51.468;-2.586;2022-10-31T06:08:37;20.85;;;2.50;;
66966;SDS011;53900;51.468;-2.586;2022-10-31T06:11:03;20.88;;;2.67;;
66966;SDS011;53900;51.468;-2.586;2022-10-31T06:13:28;23.13;;;2.40;;
66966;SDS011;53900;51.468;-2.586;2022-10-31T06:15:53;17.42;;;2.45;;
66966;SDS011;53900;51.468;-2.586;2022-10-31T06:18:19;15.65;;;2.80;;
66966;SDS011;53900;51.468;-2.586;2022-10-31T06:20:44;19.67;;;2.47;;
66966;SDS011;53900;51.468;-2.586;2022-10-31T06:23:10;20.15;;;2.33;;
66966;SDS011;53900;51.468;-2.586;2022-10-31T06:25:35;16.88;;;1.83;;
66966;SDS011;53900;51.468;-2.586;2022-10-31T06:28:00;15.68;;;2.22;;
66966;SDS011;53900;51.468;-2.586;2022-10-31T06:30:26;14.85;;;2.60;;
66966;SDS011;53900;51.468;-2.586;2022-10-31T06:32:51;18.50;;;2.50;;
66966;SDS011;53900;51.468;-2.586;2022-10-31T06:35:17;19.35;;;2.42;;
66966;SDS011;53900;51.468;-2.586;2022-10-31T06:37:42;21.38;;;2.47;;
66966;SDS011;53900;51.468;-2.586;2022-10-31T06:40:08;22.80;;;3.53;;
66966;SDS011;53900;51.468;-2.586;2022-10-31T06:42:34;22.55;;;3.17;;
66966;SDS011;53900;51.468;-2.586;2022-10-31T06:44:59;13.38;;;2.35;;
66966;SDS011;53900;51.468;-2.586;2022-10-31T06:47:24;18.42;;;2.10;;
66966;SDS011;53900;51.468;-2.586;2022-10-31T06:49:50;20.75;;;2.40;;
66966;SDS011;53900;51.468;-2.586;2022-10-31T06:52:15;30.52;;;3.55;;
66966;SDS011;53900;51.468;-2.586;2022-10-31T06:54:40;17.02;;;2.20;;
66966;SDS011;53900;51.468;-2.586;2022-10-31T06:57:06;28.80;;;3.63;;
66966;SDS011;53900;51.468;-2.586;2022-10-31T06:59:31;19.73;;;2.55;;
66966;SDS011;53900;51.468;-2.586;2022-10-31T07:01:57;21.52;;;2.72;;
66966;SDS011;53900;51.468;-2.586;2022-10-31T07:04:23;14.82;;;2.15;;
66966;SDS011;53900;51.468;-2.586;2022-10-31T07:06:50;22.55;;;2.40;;
66966;SDS011;53900;51.468;-2.586;2022-10-31T07:09:16;27.67;;;3.50;;
66966;SDS011;53900;51.468;-2.586;2022-10-31T07:11:42;17.13;;;2.60;;
66966;SDS011;53900;51.468;-2.586;2022-10-31T07:14:07;14.63;;;2.47;;
66966;SDS011;53900;51.468;-2.586;2022-10-31T07:16:32;15.35;;;2.15;;
66966;SDS011;53900;51.468;-2.586;2022-10-31T07:18:58;17.55;;;2.65;;
66966;SDS011;53900;51.468;-2.586;2022-10-31T07:21:23;29.05;;;3.03;;
66966;SDS011;53900;51.468;-2.586;2022-10-31T07:23:48;16.27;;;2.38;;
66966;SDS011;53900;51.468;-2.586;2022-10-31T07:26:14;20.38;;;2.30;;
66966;SDS011;53900;51.468;-2.586;2022-10-31T07:28:39;19.83;;;2.88;;
66966;SDS011;53900;51.468;-2.586;2022-10-31T07:31:05;13.57;;;2.17;;
66966;SDS011;53900;51.468;-2.586;2022-10-31T07:33:30;23.33;;;3.13;;
66966;SDS011;53900;51.468;-2.586;2022-10-31T07:35:56;14.00;;;2.05;;
66966;SDS011;53900;51.468;-2.586;2022-10-31T07:38:21;14.10;;;2.67;;
66966;SDS011;53900;51.468;-2.586;2022-10-31T07:40:49;21.08;;;2.40;;
66966;SDS011;53900;51.468;-2.586;2022-10-31T07:43:16;23.85;;;3.33;;
66966;SDS011;53900;51.468;-2.586;2022-10-31T07:45:42;16.60;;;2.65;;
66966;SDS011;53900;51.468;-2.586;2022-10-31T07:48:07;14.07;;;2.70;;
66966;SDS011;53900;51.468;-2.586;2022-10-31T07:50:33;15.70;;;2.00;;
66966;SDS011;53900;51.468;-2.586;2022-10-31T07:55:24;19.05;;;2.72;;
66966;SDS011;53900;51.468;-2.586;2022-10-31T07:57:59;19.92;;;2.55;;
66966;SDS011;53900;51.468;-2.586;2022-10-31T08:00:25;20.02;;;2.30;;
66966;SDS011;53900;51.468;-2.586;2022-10-31T08:03:13;17.83;;;2.22;;
66966;SDS011;53900;51.468;-2.586;2022-10-31T08:05:37;26.10;;;2.53;;
66966;SDS011;53900;51.468;-2.586;2022-10-31T08:08:04;28.38;;;3.97;;
66966;SDS011;53900;51.468;-2.586;2022-10-31T08:10:30;15.60;;;2.13;;
66966;SDS011;53900;51.468;-2.586;2022-10-31T08:13:00;11.25;;;2.17;;
66966;SDS011;53900;51.468;-2.586;2022-10-31T08:15:29;20.70;;;2.35;;
66966;SDS011;53900;51.468;-2.586;2022-10-31T08:17:55;12.23;;;2.67;;
66966;SDS011;53900;51.468;-2.586;2022-10-31T08:20:20;16.35;;;2.00;;
66966;SDS011;53900;51.468;-2.586;2022-10-31T08:22:56;27.50;;;2.65;;
66966;SDS011;53900;51.468;-2.586;2022-10-31T08:25:22;16.75;;;2.15;;
66966;SDS011;53900;51.468;-2.586;2022-10-31T08:27:49;17.42;;;2.17;;
66966;SDS011;53900;51.468;-2.586;2022-10-31T08:30:18;18.45;;;2.47;;
66966;SDS011;53900;51.468;-2.586;2022-10-31T08:32:44;16.08;;;2.13;;
66966;SDS011;53900;51.468;-2.586;2022-10-31T08:35:10;27.13;;;3.00;;
66966;SDS011;53900;51.468;-2.586;2022-10-31T08:37:35;21.25;;;2.58;;
66966;SDS011;53900;51.468;-2.586;2022-10-31T08:40:00;14.50;;;2.33;;
66966;SDS011;53900;51.468;-2.586;2022-10-31T08:42:26;9.63;;;1.85;;
66966;SDS011;53900;51.468;-2.586;2022-10-31T08:44:51;36.20;;;2.35;;
66966;SDS011;53900;51.468;-2.586;2022-10-31T08:47:16;13.75;;;2.30;;
66966;SDS011;53900;51.468;-2.586;2022-10-31T08:49:42;17.70;;;2.28;;
66966;SDS011;53900;51.468;-2.586;2022-10-31T08:52:07;19.55;;;3.13;;
66966;SDS011;53900;51.468;-2.586;2022-10-31T08:54:32;17.20;;;2.20;;
66966;SDS011;53900;51.468;-2.586;2022-10-31T08:56:58;13.35;;;2.30;;
66966;SDS011;53900;51.468;-2.586;2022-10-31T08:59:23;20.38;;;2.97;;
66966;SDS011;53900;51.468;-2.586;2022-10-31T09:01:48;12.93;;;2.28;;
66966;SDS011;53900;51.468;-2.586;2022-10-31T09:04:14;17.98;;;2.45;;
66966;SDS011;53900;51.468;-2.586;2022-10-31T09:06:39;20.80;;;2.78;;
66966;SDS011;53900;51.468;-2.586;2022-10-31T09:09:04;23.52;;;4.20;;
66966;SDS011;53900;51.468;-2.586;2022-10-31T09:11:30;11.50;;;1.90;;
66966;SDS011;53900;51.468;-2.586;2022-10-31T09:13:56;17.85;;;2.33;;
66966;SDS011;53900;51.468;-2.586;2022-10-31T09:16:21;19.02;;;2.40;;
66966;SDS011;53900;51.468;-2.586;2022-10-31T09:18:46;15.02;;;2.28;;
66966;SDS011;53900;51.468;-2.586;2022-10-31T09:21:12;13.82;;;2.10;;
66966;SDS011;53900;51.468;-2.586;2022-10-31T09:23:37;11.52;;;2.20;;
66966;SDS011;53900;51.468;-2.586;2022-10-31T09:26:02;15.30;;;2.33;;
66966;SDS011;53900;51.468;-2.586;2022-10-31T09:28:28;21.10;;;2.38;;
66966;SDS011;53900;51.468;-2.586;2022-10-31T09:30:54;18.70;;;1.98;;
66966;SDS011;53900;51.468;-2.586;2022-10-31T09:33:20;15.43;;;2.47;;
66966;SDS011;53900;51.468;-2.586;2022-10-31T09:35:45;20.45;;;3.53;;
66966;SDS011;53900;51.468;-2.586;2022-10-31T09:38:12;19.80;;;2.92;;
66966;SDS011;53900;51.468;-2.586;2022-10-31T09:40:47;22.20;;;2.67;;
66966;SDS011;53900;51.468;-2.586;2022-10-31T09:43:31;13.93;;;2.17;;
66966;SDS011;53900;51.468;-2.586;2022-10-31T09:46:04;20.00;;;3.35;;
66966;SDS011;53900;51.468;-2.586;2022-10-31T09:51:16;14.73;;;2.15;;
66966;SDS011;53900;51.468;-2.586;2022-10-31T09:53:47;19.17;;;2.33;;
66966;SDS011;53900;51.468;-2.586;2022-10-31T09:56:16;24.33;;;2.47;;
66966;SDS011;53900;51.468;-2.586;2022-10-31T09:58:45;17.48;;;2.05;;
66966;SDS011;53900;51.468;-2.586;2022-10-31T10:01:22;17.20;;;2.53;;
66966;SDS011;53900;51.468;-2.586;2022-10-31T10:07:09;17.88;;;2.20;;
66966;SDS011;53900;51.468;-2.586;2022-10-31T10:09:47;14.23;;;3.08;;
66966;SDS011;53900;51.468;-2.586;2022-10-31T10:14:47;14.38;;;2.58;;
66966;SDS011;53900;51.468;-2.586;2022-10-31T10:22:57;15.15;;;3.40;;
66966;SDS011;53900;51.468;-2.586;2022-10-31T10:26:19;15.52;;;1.95;;
66966;SDS011;53900;51.468;-2.586;2022-10-31T10:31:57;16.70;;;2.15;;
66966;SDS011;53900;51.468;-2.586;2022-10-31T10:34:29;16.65;;;2.13;;
66966;SDS011;53900;51.468;-2.586;2022-10-31T10:37:02;12.25;;;2.00;;
66966;SDS011;53900;51.468;-2.586;2022-10-31T10:39:30;10.20;;;1.75;;
66966;SDS011;53900;51.468;-2.586;2022-10-31T10:41:59;11.80;;;2.13;;
66966;SDS011;53900;51.468;-2.586;2022-10-31T10:44:45;20.20;;;2.03;;
66966;SDS011;53900;51.468;-2.586;2022-10-31T10:47:34;10.57;;;1.98;;
66966;SDS011;53900;51.468;-2.586;2022-10-31T10:50:07;18.35;;;2.03;;
66966;SDS011;53900;51.468;-2.586;2022-10-31T10:53:04;11.75;;;1.75;;
66966;SDS011;53900;51.468;-2.586;2022-10-31T11:00:27;12.85;;;1.90;;
66966;SDS011;53900;51.468;-2.586;2022-10-31T11:02:56;8.93;;;1.73;;
66966;SDS011;53900;51.468;-2.586;2022-10-31T11:05:25;8.85;;;2.05;;
66966;SDS011;53900;51.468;-2.586;2022-10-31T11:07:53;8.75;;;1.55;;
66966;SDS011;53900;51.468;-2.586;2022-10-31T11:10:18;17.40;;;2.00;;
66966;SDS011;53900;51.468;-2.586;2022-10-31T11:12:45;11.57;;;1.60;;
66966;SDS011;53900;51.468;-2.586;2022-10-31T11:15:24;8.63;;;2.03;;
66966;SDS011;53900;51.468;-2.586;2022-10-31T11:17:51;13.27;;;2.00;;
66966;SDS011;53900;51.468;-2.586;2022-10-31T11:22:44;9.10;;;1.38;;
66966;SDS011;53900;51.468;-2.586;2022-10-31T11:27:45;10.27;;;1.83;;
66966;SDS011;53900;51.468;-2.586;2022-10-31T11:30:11;13.55;;;2.15;;
66966;SDS011;53900;51.468;-2.586;2022-10-31T11:32:47;12.52;;;2.40;;
66966;SDS011;53900;51.468;-2.586;2022-10-31T11:35:16;11.43;;;1.88;;
66966;SDS011;53900;51.468;-2.586;2022-10-31T11:37:43;7.28;;;1.60;;
66966;SDS011;53900;51.468;-2.586;2022-10-31T11:40:17;12.68;;;1.73;;
66966;SDS011;53900;51.468;-2.586;2022-10-31T11:42:47;14.55;;;2.38;;
66966;SDS011;53900;51.468;-2.586;2022-10-31T11:45:14;11.48;;;1.75;;
66966;SDS011;53900;51.468;-2.586;2022-10-31T11:47:41;8.10;;;1.48;;
66966;SDS011;53900;51.468;-2.586;2022-10-31T11:50:10;13.33;;;1.50;;
66966;SDS011;53900;51.468;-2.586;2022-10-31T11:52:37;8.63;;;1.50;;
66966;SDS011;53900;51.468;-2.586;2022-10-31T11:57:44;9.00;;;1.27;;
66966;SDS011;53900;51.468;-2.586;2022-10-31T12:00:22;7.60;;;1.40;;
66966;SDS011;53900;51.468;-2.586;2022-10-31T12:03:11;6.03;;;1.35;;
66966;SDS011;53900;51.468;-2.586;2022-10-31T12:05:41;9.13;;;1.55;;
66966;SDS011;53900;51.468;-2.586;2022-10-31T12:08:11;10.80;;;1.77;;
66966;SDS011;53900;51.468;-2.586;2022-10-31T12:10:45;10.15;;;2.53;;
66966;SDS011;53900;51.468;-2.586;2022-10-31T12:16:08;10.45;;;2.38;;
66966;SDS011;53900;51.468;-2.586;2022-10-31T12:18:58;7.03;;;1.57;;
66966;SDS011;53900;51.468;-2.586;2022-10-31T12:35:29;11.85;;;2.85;;
66966;SDS011;53900;51.468;-2.586;2022-10-31T12:43:57;9.73;;;1.42;;
66966;SDS011;53900;51.468;-2.586;2022-10-31T12:46:49;9.88;;;1.70;;
66966;SDS011;53900;51.468;-2.586;2022-10-31T13:01:13;13.52;;;1.42;;
66966;SDS011;53900;51.468;-2.586;2022-10-31T13:06:08;6.22;;;1.42;;
66966;SDS011;53900;51.468;-2.586;2022-10-31T13:08:54;3.83;;;0.98;;
66966;SDS011;53900;51.468;-2.586;2022-10-31T13:11:23;7.90;;;1.20;;
66966;SDS011;53900;51.468;-2.586;2022-10-31T13:16:38;4.45;;;1.05;;
66966;SDS011;53900;51.468;-2.586;2022-10-31T13:21:53;7.18;;;1.10;;
66966;SDS011;53900;51.468;-2.586;2022-10-31T13:24:31;6.97;;;1.23;;
66966;SDS011;53900;51.468;-2.586;2022-10-31T13:27:01;4.60;;;1.05;;
66966;SDS011;53900;51.468;-2.586;2022-10-31T13:29:43;7.05;;;1.30;;
66966;SDS011;53900;51.468;-2.586;2022-10-31T13:32:13;6.45;;;1.63;;
66966;SDS011;53900;51.468;-2.586;2022-10-31T13:37:35;4.57;;;1.20;;
66966;SDS011;53900;51.468;-2.586;2022-10-31T13:45:50;2.83;;;1.10;;
66966;SDS011;53900;51.468;-2.586;2022-10-31T13:48:19;4.95;;;1.10;;
66966;SDS011;53900;51.468;-2.586;2022-10-31T13:51:02;6.70;;;1.48;;
66966;SDS011;53900;51.468;-2.586;2022-10-31T13:53:37;4.50;;;1.10;;
66966;SDS011;53900;51.468;-2.586;2022-10-31T13:56:03;6.40;;;1.30;;
66966;SDS011;53900;51.468;-2.586;2022-10-31T13:58:37;6.97;;;1.77;;
66966;SDS011;53900;51.468;-2.586;2022-10-31T14:01:21;6.82;;;1.30;;
66966;SDS011;53900;51.468;-2.586;2022-10-31T14:03:47;7.30;;;1.95;;
66966;SDS011;53900;51.468;-2.586;2022-10-31T14:06:22;7.05;;;1.63;;
66966;SDS011;53900;51.468;-2.586;2022-10-31T14:08:49;6.00;;;1.40;;
66966;SDS011;53900;51.468;-2.586;2022-10-31T14:11:21;4.05;;;1.17;;
66966;SDS011;53900;51.468;-2.586;2022-10-31T14:13:49;6.30;;;1.48;;
66966;SDS011;53900;51.468;-2.586;2022-10-31T14:16:20;6.10;;;1.55;;
66966;SDS011;53900;51.468;-2.586;2022-10-31T14:18:50;8.30;;;2.70;;
66966;SDS011;53900;51.468;-2.586;2022-10-31T14:23:50;5.63;;;1.10;;
66966;SDS011;53900;51.468;-2.586;2022-10-31T14:28:42;5.13;;;1.05;;
66966;SDS011;53900;51.468;-2.586;2022-10-31T14:31:21;4.18;;;1.30;;
66966;SDS011;53900;51.468;-2.586;2022-10-31T14:33:52;5.35;;;1.20;;
66966;SDS011;53900;51.468;-2.586;2022-10-31T14:36:18;6.72;;;1.50;;
66966;SDS011;53900;51.468;-2.586;2022-10-31T14:38:56;3.72;;;1.10;;
66966;SDS011;53900;51.468;-2.586;2022-10-31T14:41:49;4.70;;;1.00;;
66966;SDS011;53900;51.468;-2.586;2022-10-31T14:44:33;8.23;;;1.67;;
66966;SDS011;53900;51.468;-2.586;2022-10-31T14:52:37;8.20;;;1.15;;
66966;SDS011;53900;51.468;-2.586;2022-10-31T14:55:05;4.40;;;1.20;;
66966;SDS011;53900;51.468;-2.586;2022-10-31T14:57:33;9.18;;;1.38;;
66966;SDS011;53900;51.468;-2.586;2022-10-31T15:00:01;5.50;;;1.20;;
66966;SDS011;53900;51.468;-2.586;2022-10-31T15:05:48;5.95;;;1.60;;
66966;SDS011;53900;51.468;-2.586;2022-10-31T15:11:14;10.63;;;1.77;;
66966;SDS011;53900;51.468;-2.586;2022-10-31T15:13:42;8.52;;;1.33;;
66966;SDS011;53900;51.468;-2.586;2022-10-31T15:16:09;4.45;;;1.50;;
66966;SDS011;53900;51.468;-2.586;2022-10-31T15:18:35;9.48;;;2.92;;
66966;SDS011;53900;51.468;-2.586;2022-10-31T15:21:02;6.30;;;1.73;;
66966;SDS011;53900;51.468;-2.586;2022-10-31T15:23:28;14.05;;;2.55;;
66966;SDS011;53900;51.468;-2.586;2022-10-31T15:26:01;9.25;;;1.92;;
66966;SDS011;53900;51.468;-2.586;2022-10-31T15:28:28;8.57;;;2.08;;
66966;SDS011;53900;51.468;-2.586;2022-10-31T15:30:55;5.15;;;1.55;;
66966;SDS011;53900;51.468;-2.586;2022-10-31T15:33:26;7.32;;;2.00;;
66966;SDS011;53900;51.468;-2.586;2022-10-31T15:35:57;7.90;;;1.80;;
66966;SDS011;53900;51.468;-2.586;2022-10-31T15:38:26;6.28;;;1.35;;
66966;SDS011;53900;51.468;-2.586;2022-10-31T15:40:54;9.75;;;1.83;;
66966;SDS011;53900;51.468;-2.586;2022-10-31T15:43:27;6.57;;;1.48;;
66966;SDS011;53900;51.468;-2.586;2022-10-31T15:45:58;7.13;;;1.67;;
66966;SDS011;53900;51.468;-2.586;2022-10-31T15:48:24;5.75;;;1.38;;
66966;SDS011;53900;51.468;-2.586;2022-10-31T15:50:54;6.22;;;1.30;;
66966;SDS011;53900;51.468;-2.586;2022-10-31T15:56:12;9.43;;;2.13;;
66966;SDS011;53900;51.468;-2.586;2022-10-31T15:58:45;10.38;;;2.53;;
66966;SDS011;53900;51.468;-2.586;2022-10-31T16:01:29;6.37;;;1.90;;
66966;SDS011;53900;51.468;-2.586;2022-10-31T16:03:57;10.23;;;2.10;;
66966;SDS011;53900;51.468;-2.586;2022-10-31T16:06:29;6.57;;;1.73;;
66966;SDS011;53900;51.468;-2.586;2022-10-31T16:08:55;8.07;;;1.98;;
66966;SDS011;53900;51.468;-2.586;2022-10-31T16:13:59;4.25;;;1.63;;
66966;SDS011;53900;51.468;-2.586;2022-10-31T16:16:28;10.23;;;2.33;;
66966;SDS011;53900;51.468;-2.586;2022-10-31T16:18:53;5.70;;;2.15;;
66966;SDS011;53900;51.468;-2.586;2022-10-31T16:21:27;6.72;;;1.63;;
66966;SDS011;53900;51.468;-2.586;2022-10-31T16:24:01;8.93;;;2.25;;
66966;SDS011;53900;51.468;-2.586;2022-10-31T16:26:52;9.73;;;2.38;;
66966;SDS011;53900;51.468;-2.586;2022-10-31T16:29:37;9.27;;;1.90;;
66966;SDS011;53900;51.468;-2.586;2022-10-31T16:32:23;6.15;;;2.20;;
66966;SDS011;53900;51.468;-2.586;2022-10-31T16:35:16;5.38;;;2.03;;
66966;SDS011;53900;51.468;-2.586;2022-10-31T16:37:53;6.22;;;2.03;;
66966;SDS011;53900;51.468;-2.586;2022-10-31T16:40:19;7.97;;;1.83;;
66966;SDS011;53900;51.468;-2.586;2022-10-31T16:42:45;6.85;;;1.60;;
66966;SDS011;53900;51.468;-2.586;2022-10-31T16:45:17;5.18;;;1.67;;
66966;SDS011;53900;51.468;-2.586;2022-10-31T16:47:47;4.68;;;1.63;;
66966;SDS011;53900;51.468;-2.586;2022-10-31T16:50:14;6.32;;;1.60;;
66966;SDS011;53900;51.468;-2.586;2022-10-31T16:52:50;7.22;;;1.60;;
66966;SDS011;53900;51.468;-2.586;2022-10-31T16:55:16;9.85;;;1.70;;
66966;SDS011;53900;51.468;-2.586;2022-10-31T16:57:45;7.85;;;1.70;;